createdAt,value
2017-05-21T00:00:35.142Z,82.42
2017-05-21T00:01:15.677Z,82.8
2017-05-21T00:01:56.234Z,82.99
2017-05-21T00:02:36.883Z,82.99
2017-05-21T00:03:17.433Z,82.99
2017-05-21T00:03:58.090Z,82.99
2017-05-21T00:04:38.739Z,82.99
2017-05-21T00:05:19.379Z,82.8
2017-05-21T00:05:59.927Z,82.8
2017-05-21T00:06:40.481Z,82.99
2017-05-21T00:07:21.022Z,83.09
2017-05-21T00:08:01.584Z,82.8
2017-05-21T00:08:42.115Z,83.18
2017-05-21T00:09:22.693Z,83.09
2017-05-21T00:10:03.228Z,83.18
2017-05-21T00:10:43.780Z,83.47
2017-05-21T00:11:24.334Z,83.28
2017-05-21T00:12:04.871Z,83.28
2017-05-21T00:12:45.446Z,83.28
2017-05-21T00:13:25.991Z,83.28
2017-05-21T00:14:06.525Z,83.28
2017-05-21T00:14:47.090Z,83.28
2017-05-21T00:15:27.642Z,83.37
2017-05-21T00:16:08.188Z,83.23
2017-05-21T00:16:48.738Z,82.99
2017-05-21T00:17:29.297Z,82.99
2017-05-21T00:18:09.837Z,82.99
2017-05-21T00:18:50.453Z,83.09
2017-05-21T00:19:31.032Z,82.99
2017-05-21T00:20:11.564Z,83.33
2017-05-21T00:20:52.154Z,82.99
2017-05-21T00:21:32.736Z,83.23
2017-05-21T00:22:13.313Z,83.33
2017-05-21T00:22:53.840Z,82.95
2017-05-21T00:23:34.444Z,83.04
2017-05-21T00:24:15.020Z,83.81
2017-05-21T00:24:55.560Z,82.95
2017-05-21T00:25:36.122Z,83.9
2017-05-21T00:26:16.668Z,83.9
2017-05-21T00:26:57.314Z,83.71
2017-05-21T00:27:37.876Z,83.42
2017-05-21T00:28:18.431Z,83.62
2017-05-21T00:28:59.027Z,83.52
2017-05-21T00:29:39.542Z,83.71
2017-05-21T00:30:20.148Z,83.71
2017-05-21T00:31:00.755Z,83.52
2017-05-21T00:31:41.321Z,83.52
2017-05-21T00:32:21.884Z,83.23
2017-05-21T00:33:02.474Z,83.52
2017-05-21T00:33:43.052Z,83.62
2017-05-21T00:34:23.644Z,83.42
2017-05-21T00:35:04.164Z,83.52
2017-05-21T00:35:44.756Z,83.33
2017-05-21T00:36:25.343Z,83.52
2017-05-21T00:37:06.962Z,83.52
2017-05-21T00:37:47.505Z,83.42
2017-05-21T00:38:28.101Z,83.81
2017-05-21T00:39:08.683Z,83.9
2017-05-21T00:39:49.335Z,83.81
2017-05-21T00:40:29.987Z,83.62
2017-05-21T00:41:10.529Z,83.71
2017-05-21T00:41:51.078Z,83.62
2017-05-21T00:42:31.631Z,83.81
2017-05-21T00:43:12.195Z,83.71
2017-05-21T00:43:52.775Z,83.9
2017-05-21T00:44:33.368Z,83.9
2017-05-21T00:45:13.938Z,83.9
2017-05-21T00:45:54.505Z,83.71
2017-05-21T00:46:35.049Z,83.81
2017-05-21T00:47:15.586Z,83.81
2017-05-21T00:47:57.173Z,83.71
2017-05-21T00:48:38.108Z,83.71
2017-05-21T00:49:18.615Z,83.71
2017-05-21T00:49:59.194Z,83.71
2017-05-21T00:50:39.811Z,83.62
2017-05-21T00:51:20.328Z,83.42
2017-05-21T00:52:00.942Z,83.9
2017-05-21T00:52:41.564Z,83.52
2017-05-21T00:53:22.123Z,83.52
2017-05-21T00:54:02.701Z,84
2017-05-21T00:54:43.345Z,84.19
2017-05-21T00:55:23.894Z,84.19
2017-05-21T00:56:04.472Z,84.09
2017-05-21T00:56:45.090Z,84
2017-05-21T00:57:25.633Z,84.09
2017-05-21T00:58:06.200Z,84.09
2017-05-21T00:58:46.756Z,84.19
2017-05-21T00:59:27.372Z,83.81
2017-05-21T01:00:07.934Z,84
2017-05-21T01:00:48.475Z,84.19
2017-05-21T01:01:29.063Z,84.28
2017-05-21T01:02:09.645Z,84.38
2017-05-21T01:02:50.245Z,84.38
2017-05-21T01:03:30.784Z,84.38
2017-05-21T01:04:11.362Z,84.28
2017-05-21T01:04:52.010Z,84.28
2017-05-21T01:05:32.531Z,84.28
2017-05-21T01:06:13.130Z,84.09
2017-05-21T01:06:53.760Z,83.9
2017-05-21T01:07:34.304Z,83.9
2017-05-21T01:08:14.895Z,84
2017-05-21T01:08:55.495Z,84.19
2017-05-21T01:09:36.045Z,84
2017-05-21T01:10:18.030Z,84.19
2017-05-21T01:10:58.601Z,84.09
2017-05-21T01:11:39.132Z,84.09
2017-05-21T01:12:19.757Z,84.52
2017-05-21T01:13:00.336Z,84.09
2017-05-21T01:13:40.894Z,84.19
2017-05-21T01:14:21.407Z,84.76
2017-05-21T01:15:01.990Z,84.72
2017-05-21T01:15:42.539Z,84.52
2017-05-21T01:16:23.056Z,84.33
2017-05-21T01:17:03.641Z,84.47
2017-05-21T01:17:44.208Z,84.43
2017-05-21T01:18:24.769Z,84.24
2017-05-21T01:19:05.310Z,84.52
2017-05-21T01:19:45.862Z,84.33
2017-05-21T01:20:26.396Z,84.43
2017-05-21T01:21:07.010Z,84.52
2017-05-21T01:21:47.540Z,84.52
2017-05-21T01:22:28.166Z,84.62
2017-05-21T01:23:08.685Z,84.33
2017-05-21T01:23:49.215Z,84.24
2017-05-21T01:24:29.801Z,84.24
2017-05-21T01:25:10.333Z,84.81
2017-05-21T01:25:50.972Z,84.52
2017-05-21T01:26:31.491Z,84.62
2017-05-21T01:27:12.022Z,84.24
2017-05-21T01:27:52.608Z,84.24
2017-05-21T01:28:33.225Z,84.24
2017-05-21T01:29:13.863Z,84.33
2017-05-21T01:29:54.399Z,84.33
2017-05-21T01:30:34.959Z,84.33
2017-05-21T01:31:15.510Z,84.33
2017-05-21T01:31:56.062Z,84.43
2017-05-21T01:32:36.614Z,84.24
2017-05-21T01:33:17.143Z,84.43
2017-05-21T01:33:57.658Z,84.33
2017-05-21T01:34:38.209Z,84.24
2017-05-21T01:35:18.738Z,84.43
2017-05-21T01:35:59.365Z,84.05
2017-05-21T01:36:39.900Z,84.05
2017-05-21T01:37:20.427Z,84.14
2017-05-21T01:38:01.033Z,84.33
2017-05-21T01:38:41.587Z,84.52
2017-05-21T01:39:22.132Z,84.14
2017-05-21T01:40:02.705Z,84.52
2017-05-21T01:40:43.256Z,84.33
2017-05-21T01:41:23.801Z,84.24
2017-05-21T01:42:04.335Z,84.24
2017-05-21T01:42:44.896Z,84.24
2017-05-21T01:43:25.455Z,84.52
2017-05-21T01:44:06.003Z,84.62
2017-05-21T01:44:46.536Z,84.81
2017-05-21T01:45:27.092Z,84.24
2017-05-21T01:46:07.619Z,84.33
2017-05-21T01:46:48.193Z,84.43
2017-05-21T01:47:28.730Z,84.52
2017-05-21T01:48:09.311Z,84.62
2017-05-21T01:48:49.827Z,85.19
2017-05-21T01:49:30.391Z,84.91
2017-05-21T01:50:10.951Z,84.91
2017-05-21T01:50:51.517Z,85
2017-05-21T01:51:32.172Z,84.91
2017-05-21T01:52:12.783Z,84.91
2017-05-21T01:52:53.333Z,84.91
2017-05-21T01:53:33.861Z,85
2017-05-21T01:54:14.459Z,84.81
2017-05-21T01:54:55.013Z,84.81
2017-05-21T01:55:35.569Z,84.81
2017-05-21T01:56:16.196Z,84.81
2017-05-21T01:56:56.805Z,84.62
2017-05-21T01:57:37.358Z,84.81
2017-05-21T01:58:17.937Z,84.91
2017-05-21T01:58:58.441Z,84.62
2017-05-21T01:59:39.042Z,84.81
2017-05-21T02:00:19.597Z,84.91
2017-05-21T02:01:00.144Z,85
2017-05-21T02:01:40.720Z,85
2017-05-21T02:02:21.278Z,84.72
2017-05-21T02:03:01.828Z,84.72
2017-05-21T02:03:42.381Z,85
2017-05-21T02:04:22.900Z,84.72
2017-05-21T02:05:03.480Z,84.43
2017-05-21T02:05:44.004Z,84.62
2017-05-21T02:06:24.577Z,84.72
2017-05-21T02:07:05.101Z,84.72
2017-05-21T02:07:45.723Z,85.19
2017-05-21T02:08:26.250Z,84.81
2017-05-21T02:09:06.867Z,85.19
2017-05-21T02:09:47.363Z,85
2017-05-21T02:10:27.960Z,85.1
2017-05-21T02:11:08.497Z,85.1
2017-05-21T02:11:49.042Z,85.1
2017-05-21T02:12:29.627Z,85
2017-05-21T02:13:10.172Z,85
2017-05-21T02:13:50.745Z,85.05
2017-05-21T02:14:31.271Z,85.1
2017-05-21T02:15:11.870Z,85
2017-05-21T02:15:52.397Z,84.86
2017-05-21T02:16:32.972Z,84.81
2017-05-21T02:17:13.501Z,84.81
2017-05-21T02:17:54.128Z,84.91
2017-05-21T02:18:34.655Z,84.77
2017-05-21T02:19:15.276Z,84.77
2017-05-21T02:19:55.908Z,84.86
2017-05-21T02:20:36.588Z,84.67
2017-05-21T02:21:17.180Z,84.77
2017-05-21T02:21:57.706Z,85.15
2017-05-21T02:22:38.298Z,85.62
2017-05-21T02:23:18.846Z,84.95
2017-05-21T02:23:59.396Z,85.62
2017-05-21T02:24:39.964Z,85.72
2017-05-21T02:25:20.593Z,85.72
2017-05-21T02:26:01.131Z,85.72
2017-05-21T02:26:41.681Z,85.62
2017-05-21T02:27:22.246Z,85.62
2017-05-21T02:28:02.761Z,85.24
2017-05-21T02:28:43.399Z,84.95
2017-05-21T02:29:24.001Z,85.15
2017-05-21T02:30:05.610Z,85.62
2017-05-21T02:30:46.227Z,85.62
2017-05-21T02:31:26.822Z,85.62
2017-05-21T02:32:07.362Z,85.43
2017-05-21T02:32:47.971Z,85.81
2017-05-21T02:33:28.511Z,85.72
2017-05-21T02:34:09.028Z,85.62
2017-05-21T02:34:50.598Z,85.91
2017-05-21T02:35:31.161Z,85.62
2017-05-21T02:36:11.880Z,85.62
2017-05-21T02:36:52.391Z,85.72
2017-05-21T02:37:32.936Z,85.62
2017-05-21T02:38:13.456Z,85.62
2017-05-21T02:38:53.995Z,85.15
2017-05-21T02:39:34.724Z,85.15
2017-05-21T02:40:15.186Z,85.62
2017-05-21T02:40:55.827Z,85.72
2017-05-21T02:41:36.402Z,85.72
2017-05-21T02:42:17.003Z,85.15
2017-05-21T02:42:57.534Z,85.15
2017-05-21T02:43:38.105Z,85.62
2017-05-21T02:44:18.700Z,85.15
2017-05-21T02:44:59.313Z,85.53
2017-05-21T02:45:39.853Z,85.24
2017-05-21T02:46:21.679Z,85.43
2017-05-21T02:47:02.277Z,85.34
2017-05-21T02:47:42.871Z,85.34
2017-05-21T02:48:23.405Z,85.34
2017-05-21T02:49:04.016Z,85.43
2017-05-21T02:49:44.722Z,85.34
2017-05-21T02:50:25.401Z,85.43
2017-05-21T02:51:06.967Z,85.05
2017-05-21T02:51:47.539Z,85.15
2017-05-21T02:52:28.197Z,85.34
2017-05-21T02:53:08.843Z,85.53
2017-05-21T02:53:49.396Z,85.24
2017-05-21T02:54:30.013Z,85.72
2017-05-21T02:55:10.574Z,85.15
2017-05-21T02:55:51.101Z,85.62
2017-05-21T02:56:31.707Z,85.81
2017-05-21T02:57:12.291Z,85.34
2017-05-21T02:57:52.936Z,85.72
2017-05-21T02:58:33.454Z,85.43
2017-05-21T02:59:14.044Z,85.72
2017-05-21T02:59:54.595Z,85.62
2017-05-21T03:00:35.151Z,85.72
2017-05-21T03:01:15.777Z,85.62
2017-05-21T03:01:56.350Z,85.53
2017-05-21T03:02:36.901Z,85.43
2017-05-21T03:03:17.550Z,85.62
2017-05-21T03:03:58.116Z,85.53
2017-05-21T03:04:38.736Z,85.62
2017-05-21T03:05:19.262Z,85.53
2017-05-21T03:05:59.849Z,85.53
2017-05-21T03:06:40.472Z,85.53
2017-05-21T03:07:20.983Z,85.72
2017-05-21T03:08:01.598Z,85.62
2017-05-21T03:08:42.132Z,85.62
2017-05-21T03:09:22.659Z,85.53
2017-05-21T03:10:03.239Z,85.72
2017-05-21T03:10:43.800Z,85.72
2017-05-21T03:11:24.364Z,85.72
2017-05-21T03:12:04.902Z,85.62
2017-05-21T03:12:45.460Z,85.53
2017-05-21T03:13:26.027Z,85.34
2017-05-21T03:14:06.550Z,85.72
2017-05-21T03:14:47.095Z,85.62
2017-05-21T03:15:27.682Z,85.62
2017-05-21T03:16:08.332Z,85.53
2017-05-21T03:16:48.868Z,85.53
2017-05-21T03:17:29.410Z,85.53
2017-05-21T03:18:09.964Z,85.62
2017-05-21T03:18:50.506Z,85.81
2017-05-21T03:19:31.055Z,85.72
2017-05-21T03:20:11.604Z,85.72
2017-05-21T03:20:52.210Z,85.81
2017-05-21T03:21:32.821Z,85.91
2017-05-21T03:22:13.361Z,85.43
2017-05-21T03:22:53.911Z,86
2017-05-21T03:23:34.502Z,85.72
2017-05-21T03:24:15.150Z,85.62
2017-05-21T03:24:55.778Z,86.1
2017-05-21T03:25:36.327Z,86
2017-05-21T03:26:17.900Z,85.72
2017-05-21T03:26:58.451Z,86
2017-05-21T03:27:39.059Z,86.1
2017-05-21T03:28:19.657Z,86.19
2017-05-21T03:29:00.325Z,85.53
2017-05-21T03:29:40.969Z,86
2017-05-21T03:30:21.505Z,86.19
2017-05-21T03:31:02.086Z,86.1
2017-05-21T03:31:42.620Z,85.53
2017-05-21T03:32:23.293Z,85.34
2017-05-21T03:33:03.930Z,86
2017-05-21T03:33:44.468Z,86.1
2017-05-21T03:34:25.059Z,85.53
2017-05-21T03:35:05.692Z,86
2017-05-21T03:35:46.347Z,85.91
2017-05-21T03:36:26.976Z,86.19
2017-05-21T03:37:07.569Z,85.62
2017-05-21T03:37:48.172Z,85.53
2017-05-21T03:38:28.730Z,85.91
2017-05-21T03:39:10.318Z,85.34
2017-05-21T03:39:50.899Z,86.1
2017-05-21T03:40:31.477Z,85.53
2017-05-21T03:41:12.027Z,86.1
2017-05-21T03:41:52.596Z,85.81
2017-05-21T03:42:33.195Z,86.1
2017-05-21T03:43:13.781Z,85.81
2017-05-21T03:43:54.335Z,85.81
2017-05-21T03:44:34.929Z,86
2017-05-21T03:45:15.610Z,85.81
2017-05-21T03:45:56.240Z,86
2017-05-21T03:46:36.873Z,85.62
2017-05-21T03:47:17.442Z,85.81
2017-05-21T03:47:58.083Z,85.62
2017-05-21T03:48:38.730Z,85.91
2017-05-21T03:49:19.267Z,85.91
2017-05-21T03:49:59.833Z,86.29
2017-05-21T03:50:40.401Z,85.91
2017-05-21T03:51:21.049Z,86
2017-05-21T03:52:01.588Z,85.53
2017-05-21T03:52:42.143Z,86.1
2017-05-21T03:53:22.688Z,86.29
2017-05-21T03:54:03.237Z,86
2017-05-21T03:54:43.813Z,85.53
2017-05-21T03:55:24.445Z,86.19
2017-05-21T03:56:05.084Z,86.1
2017-05-21T03:56:45.647Z,86.19
2017-05-21T03:57:26.187Z,86
2017-05-21T03:58:06.732Z,86.19
2017-05-21T03:58:47.298Z,85.53
2017-05-21T03:59:27.837Z,86
2017-05-21T04:00:08.421Z,86.19
2017-05-21T04:00:49.063Z,86.29
2017-05-21T04:01:29.588Z,85.62
2017-05-21T04:02:11.179Z,86.1
2017-05-21T04:02:52.816Z,86.19
2017-05-21T04:03:33.390Z,85.62
2017-05-21T04:04:13.961Z,86.1
2017-05-21T04:04:54.589Z,85.91
2017-05-21T04:05:35.113Z,85.62
2017-05-21T04:06:15.706Z,85.91
2017-05-21T04:06:56.337Z,85.62
2017-05-21T04:07:36.844Z,85.81
2017-05-21T04:08:17.480Z,85.81
2017-05-21T04:08:58.095Z,85.72
2017-05-21T04:09:38.611Z,85.81
2017-05-21T04:10:19.225Z,85.72
2017-05-21T04:11:00.799Z,85.81
2017-05-21T04:11:41.338Z,85.81
2017-05-21T04:12:21.912Z,85.62
2017-05-21T04:13:02.532Z,85.62
2017-05-21T04:13:43.101Z,85.53
2017-05-21T04:14:23.649Z,85.72
2017-05-21T04:15:04.236Z,85.81
2017-05-21T04:15:44.820Z,85.62
2017-05-21T04:16:25.343Z,85.62
2017-05-21T04:17:05.942Z,85.81
2017-05-21T04:17:46.532Z,85.53
2017-05-21T04:18:27.139Z,85.72
2017-05-21T04:19:07.650Z,85.53
2017-05-21T04:19:48.259Z,85.72
2017-05-21T04:20:28.903Z,85.53
2017-05-21T04:21:09.440Z,85.62
2017-05-21T04:21:50.034Z,85.62
2017-05-21T04:22:30.659Z,85.53
2017-05-21T04:23:11.209Z,85.53
2017-05-21T04:23:51.738Z,85.62
2017-05-21T04:24:32.312Z,85.62
2017-05-21T04:25:12.945Z,85.43
2017-05-21T04:25:53.459Z,85.43
2017-05-21T04:26:35.111Z,85.81
2017-05-21T04:27:15.714Z,85.24
2017-05-21T04:27:56.237Z,85.43
2017-05-21T04:28:36.837Z,85.72
2017-05-21T04:29:17.454Z,85.66
2017-05-21T04:29:58.019Z,85.86
2017-05-21T04:30:38.646Z,85.86
2017-05-21T04:31:19.279Z,85.76
2017-05-21T04:31:59.872Z,85.95
2017-05-21T04:32:40.460Z,85.57
2017-05-21T04:33:21.108Z,85.86
2017-05-21T04:34:01.698Z,85.76
2017-05-21T04:34:42.283Z,85.47
2017-05-21T04:35:22.797Z,85.38
2017-05-21T04:36:03.375Z,85.47
2017-05-21T04:36:43.925Z,85.47
2017-05-21T04:37:24.483Z,85.66
2017-05-21T04:38:05.033Z,85.38
2017-05-21T04:38:45.575Z,85.47
2017-05-21T04:39:26.135Z,85.57
2017-05-21T04:40:06.710Z,85.57
2017-05-21T04:40:47.324Z,85.38
2017-05-21T04:41:27.836Z,85.38
2017-05-21T04:42:08.456Z,85.38
2017-05-21T04:42:49.029Z,85.47
2017-05-21T04:43:29.623Z,85.38
2017-05-21T04:44:10.136Z,85.76
2017-05-21T04:44:50.744Z,85.47
2017-05-21T04:45:31.326Z,85.47
2017-05-21T04:46:11.944Z,85.57
2017-05-21T04:46:52.475Z,85.66
2017-05-21T04:47:33.030Z,85.66
2017-05-21T04:48:13.633Z,85.66
2017-05-21T04:48:54.231Z,85.47
2017-05-21T04:49:34.798Z,85.76
2017-05-21T04:50:15.333Z,85.76
2017-05-21T04:50:55.903Z,85.76
2017-05-21T04:51:36.448Z,85.57
2017-05-21T04:52:16.999Z,85.38
2017-05-21T04:52:57.543Z,85.28
2017-05-21T04:53:38.098Z,85.66
2017-05-21T04:54:18.647Z,85.66
2017-05-21T04:54:59.197Z,85.19
2017-05-21T04:55:39.759Z,85.1
2017-05-21T04:56:20.327Z,84.85
2017-05-21T04:57:01.266Z,84.95
2017-05-21T04:57:41.815Z,84.76
2017-05-21T04:58:22.372Z,84.95
2017-05-21T04:59:02.941Z,85.14
2017-05-21T04:59:43.523Z,84.95
2017-05-21T05:00:24.102Z,84.85
2017-05-21T05:01:04.624Z,85.24
2017-05-21T05:01:45.207Z,84.76
2017-05-21T05:02:25.844Z,84.66
2017-05-21T05:03:06.420Z,84.66
2017-05-21T05:03:46.929Z,84.95
2017-05-21T05:04:27.545Z,84.76
2017-05-21T05:05:08.165Z,84.85
2017-05-21T05:05:48.733Z,84.66
2017-05-21T05:06:29.287Z,84.66
2017-05-21T05:07:09.829Z,84.95
2017-05-21T05:07:50.421Z,84.95
2017-05-21T05:08:30.964Z,84.95
2017-05-21T05:09:11.579Z,84.99
2017-05-21T05:09:52.095Z,85.08
2017-05-21T05:10:32.669Z,84.61
2017-05-21T05:11:13.192Z,84.52
2017-05-21T05:11:53.725Z,84.42
2017-05-21T05:12:34.347Z,84.8
2017-05-21T05:13:14.873Z,84.8
2017-05-21T05:13:55.440Z,84.7
2017-05-21T05:14:35.989Z,84.33
2017-05-21T05:15:16.535Z,84.42
2017-05-21T05:15:57.085Z,84.42
2017-05-21T05:16:37.674Z,84.61
2017-05-21T05:17:18.278Z,84.61
2017-05-21T05:17:58.799Z,84.23
2017-05-21T05:18:39.427Z,84.42
2017-05-21T05:19:21.001Z,84.42
2017-05-21T05:20:01.562Z,84.42
2017-05-21T05:20:42.218Z,84.42
2017-05-21T05:21:22.791Z,84.23
2017-05-21T05:22:03.411Z,84.52
2017-05-21T05:22:43.983Z,84.42
2017-05-21T05:23:24.612Z,84.52
2017-05-21T05:24:05.146Z,84.33
2017-05-21T05:24:45.725Z,84.08
2017-05-21T05:25:26.367Z,84.04
2017-05-21T05:26:07.023Z,84.08
2017-05-21T05:26:47.553Z,84.27
2017-05-21T05:27:29.127Z,84.08
2017-05-21T05:28:09.681Z,84.27
2017-05-21T05:28:50.229Z,84.17
2017-05-21T05:29:31.816Z,84.36
2017-05-21T05:30:12.437Z,84.46
2017-05-21T05:30:53.078Z,84.08
2017-05-21T05:31:33.615Z,83.61
2017-05-21T05:32:14.187Z,83.8
2017-05-21T05:32:54.739Z,83.8
2017-05-21T05:33:35.249Z,83.8
2017-05-21T05:34:15.861Z,83.8
2017-05-21T05:34:56.483Z,83.98
2017-05-21T05:35:37.110Z,83.98
2017-05-21T05:36:17.758Z,83.8
2017-05-21T05:36:58.296Z,83.7
2017-05-21T05:37:41.015Z,83.51
2017-05-21T05:38:21.568Z,83.61
2017-05-21T05:39:02.146Z,83.84
2017-05-21T05:39:42.681Z,83.74
2017-05-21T05:40:23.216Z,83.55
2017-05-21T05:41:03.786Z,83.74
2017-05-21T05:41:44.311Z,83.55
2017-05-21T05:42:24.878Z,84.12
2017-05-21T05:43:05.398Z,83.55
2017-05-21T05:43:45.992Z,83.07
2017-05-21T05:44:26.555Z,83.26
2017-05-21T05:45:07.139Z,83.26
2017-05-21T05:45:47.747Z,82.98
2017-05-21T05:46:28.294Z,83.45
2017-05-21T05:47:08.877Z,83.36
2017-05-21T05:47:49.434Z,83.55
2017-05-21T05:48:30.037Z,83.45
2017-05-21T05:49:10.572Z,82.89
2017-05-21T05:49:51.128Z,82.79
2017-05-21T05:50:31.650Z,82.89
2017-05-21T05:51:12.259Z,82.89
2017-05-21T05:51:52.796Z,83.07
2017-05-21T05:52:33.390Z,83.07
2017-05-21T05:53:13.943Z,83.07
2017-05-21T05:53:54.528Z,82.5
2017-05-21T05:54:35.078Z,82.89
2017-05-21T05:55:15.595Z,82.79
2017-05-21T05:55:56.209Z,83.17
2017-05-21T05:56:36.734Z,82.98
2017-05-21T05:57:17.286Z,82.89
2017-05-21T05:57:57.806Z,82.98
2017-05-21T05:58:38.421Z,82.89
2017-05-21T05:59:19.038Z,82.69
2017-05-21T05:59:59.648Z,82.64
2017-05-21T06:00:40.176Z,82.89
2017-05-21T06:01:20.789Z,82.64
2017-05-21T06:02:01.319Z,82.92
2017-05-21T06:02:41.863Z,82.54
2017-05-21T06:03:22.576Z,82.64
2017-05-21T06:04:02.993Z,82.73
2017-05-21T06:04:43.588Z,82.73
2017-05-21T06:05:25.147Z,82.83
2017-05-21T06:06:05.713Z,82.26
2017-05-21T06:06:46.239Z,82.35
2017-05-21T06:07:26.804Z,82.17
2017-05-21T06:08:07.350Z,82.26
2017-05-21T06:08:47.891Z,82.54
2017-05-21T06:09:28.487Z,82.45
2017-05-21T06:10:08.979Z,82.26
2017-05-21T06:10:49.499Z,82.26
2017-05-21T06:11:30.045Z,82.35
2017-05-21T06:12:10.682Z,82.07
2017-05-21T06:12:51.201Z,81.88
2017-05-21T06:13:31.724Z,82.35
2017-05-21T06:14:12.321Z,82.26
2017-05-21T06:14:52.933Z,82.07
2017-05-21T06:15:33.478Z,82.26
2017-05-21T06:16:13.970Z,82.26
2017-05-21T06:16:54.629Z,82.26
2017-05-21T06:17:35.215Z,81.97
2017-05-21T06:18:15.785Z,81.88
2017-05-21T06:18:56.309Z,81.88
2017-05-21T06:19:36.862Z,81.68
2017-05-21T06:20:17.450Z,81.92
2017-05-21T06:20:57.963Z,81.44
2017-05-21T06:21:38.581Z,81.44
2017-05-21T06:22:19.097Z,81.54
2017-05-21T06:22:59.673Z,81.63
2017-05-21T06:23:40.205Z,81.73
2017-05-21T06:24:20.791Z,81.82
2017-05-21T06:25:01.328Z,81.06
2017-05-21T06:25:41.918Z,81.35
2017-05-21T06:26:22.430Z,81.44
2017-05-21T06:27:03.002Z,81.15
2017-05-21T06:27:43.550Z,80.77
2017-05-21T06:28:24.140Z,81.06
2017-05-21T06:29:04.768Z,81.63
2017-05-21T06:29:45.317Z,81.06
2017-05-21T06:30:25.971Z,80.77
2017-05-21T06:31:07.585Z,81.15
2017-05-21T06:31:48.119Z,80.87
2017-05-21T06:32:28.742Z,80.96
2017-05-21T06:33:09.334Z,81.15
2017-05-21T06:33:49.901Z,81.06
2017-05-21T06:34:30.449Z,81.15
2017-05-21T06:35:10.995Z,81.35
2017-05-21T06:35:51.550Z,80.96
2017-05-21T06:36:32.107Z,80.49
2017-05-21T06:37:12.673Z,80.77
2017-05-21T06:37:53.196Z,80.49
2017-05-21T06:38:33.814Z,80.49
2017-05-21T06:39:14.406Z,80.68
2017-05-21T06:39:54.968Z,80.72
2017-05-21T06:40:35.587Z,80.58
2017-05-21T06:41:16.120Z,80.91
2017-05-21T06:41:56.722Z,81.01
2017-05-21T06:42:37.336Z,80.72
2017-05-21T06:43:17.899Z,80.33
2017-05-21T06:43:58.440Z,80.62
2017-05-21T06:44:38.968Z,80.62
2017-05-21T06:45:19.544Z,80.72
2017-05-21T06:46:00.157Z,80.33
2017-05-21T06:46:40.729Z,80.33
2017-05-21T06:47:21.248Z,80.43
2017-05-21T06:48:01.936Z,80.05
2017-05-21T06:48:42.560Z,80.24
2017-05-21T06:49:23.153Z,80.33
2017-05-21T06:50:03.748Z,79.96
2017-05-21T06:50:45.316Z,79.77
2017-05-21T06:51:25.866Z,80.15
2017-05-21T06:52:06.425Z,79.86
2017-05-21T06:52:47.071Z,79.96
2017-05-21T06:53:27.584Z,79.67
2017-05-21T06:54:08.290Z,79.86
2017-05-21T06:54:48.849Z,79.86
2017-05-21T06:55:29.497Z,79.86
2017-05-21T06:56:09.990Z,80.05
2017-05-21T06:56:50.540Z,79.96
2017-05-21T06:57:31.166Z,79.86
2017-05-21T06:58:11.684Z,80.05
2017-05-21T06:58:52.302Z,80.05
2017-05-21T06:59:32.832Z,80.05
2017-05-21T07:00:13.399Z,79.67
2017-05-21T07:00:54.018Z,79.48
2017-05-21T07:01:34.624Z,79.38
2017-05-21T07:02:15.289Z,79.52
2017-05-21T07:02:57.873Z,78.66
2017-05-21T07:03:38.416Z,78.85
2017-05-21T07:04:19.017Z,79.23
2017-05-21T07:05:00.540Z,78.66
2017-05-21T07:05:41.088Z,78.66
2017-05-21T07:06:22.687Z,78.66
2017-05-21T07:07:03.205Z,78.37
2017-05-21T07:07:43.869Z,78.28
2017-05-21T07:08:24.380Z,78.09
2017-05-21T07:09:05.016Z,78.18
2017-05-21T07:09:45.567Z,78.37
2017-05-21T07:10:26.168Z,77.89
2017-05-21T07:11:06.690Z,78.28
2017-05-21T07:11:47.330Z,78.37
2017-05-21T07:12:29.933Z,77.89
2017-05-21T07:13:10.543Z,77.8
2017-05-21T07:13:51.073Z,77.61
2017-05-21T07:14:31.632Z,77.61
2017-05-21T07:15:12.241Z,77.7
2017-05-21T07:15:52.827Z,77.8
2017-05-21T07:16:33.344Z,77.7
2017-05-21T07:17:13.941Z,77.99
2017-05-21T07:17:55.558Z,77.7
2017-05-21T07:18:36.163Z,77.45
2017-05-21T07:19:16.695Z,76.88
2017-05-21T07:19:57.226Z,76.88
2017-05-21T07:20:37.774Z,76.5
2017-05-21T07:21:18.291Z,76.79
2017-05-21T07:21:58.817Z,76.69
2017-05-21T07:22:39.367Z,76.69
2017-05-21T07:23:19.885Z,76.79
2017-05-21T07:24:00.414Z,76.79
2017-05-21T07:24:40.941Z,76.79
2017-05-21T07:25:21.467Z,76.5
2017-05-21T07:26:02.005Z,76.5
2017-05-21T07:26:42.524Z,76.6
2017-05-21T07:27:23.056Z,76.31
2017-05-21T07:28:03.628Z,76.6
2017-05-21T07:28:44.184Z,76.21
2017-05-21T07:29:24.707Z,76.12
2017-05-21T07:30:06.235Z,75.93
2017-05-21T07:30:46.749Z,76.12
2017-05-21T07:31:27.266Z,75.93
2017-05-21T07:32:07.790Z,75.93
2017-05-21T07:32:48.330Z,76.12
2017-05-21T07:33:29.875Z,75.96
2017-05-21T07:34:10.390Z,75.64
2017-05-21T07:34:50.915Z,75.87
2017-05-21T07:35:31.432Z,75.68
2017-05-21T07:36:11.970Z,76.06
2017-05-21T07:36:52.493Z,76.06
2017-05-21T07:37:33.005Z,75.87
2017-05-21T07:38:13.523Z,75.2
2017-05-21T07:38:54.046Z,75.39
2017-05-21T07:39:34.563Z,75.49
2017-05-21T07:40:15.095Z,75.59
2017-05-21T07:40:55.641Z,75.2
2017-05-21T07:41:36.169Z,74.82
2017-05-21T07:42:17.712Z,74.44
2017-05-21T07:42:58.226Z,74.44
2017-05-21T07:43:38.750Z,74.15
2017-05-21T07:44:19.291Z,73.9
2017-05-21T07:44:59.808Z,74.05
2017-05-21T07:45:40.320Z,73.61
2017-05-21T07:46:20.829Z,73.71
2017-05-21T07:47:01.343Z,73.71
2017-05-21T07:47:41.888Z,73.43
2017-05-21T07:48:22.435Z,73.52
2017-05-21T07:49:02.936Z,73.52
2017-05-21T07:49:44.466Z,73.43
2017-05-21T07:50:24.990Z,73.23
2017-05-21T07:51:05.539Z,73.14
2017-05-21T07:51:46.055Z,73.04
2017-05-21T07:52:26.565Z,73.04
2017-05-21T07:53:07.105Z,72.94
2017-05-21T07:53:47.616Z,72.66
2017-05-21T07:54:28.145Z,72.47
2017-05-21T07:55:08.690Z,72.66
2017-05-21T07:55:50.210Z,72.66
2017-05-21T07:56:30.725Z,73.04
2017-05-21T07:57:12.256Z,72.94
2017-05-21T07:57:52.807Z,72.37
2017-05-21T07:58:33.387Z,72.75
2017-05-21T07:59:13.958Z,72.47
2017-05-21T07:59:54.544Z,72.66
2017-05-21T08:00:35.042Z,72.37
2017-05-21T08:01:15.585Z,72.28
2017-05-21T08:01:57.107Z,72.18
2017-05-21T08:02:37.620Z,72.18
2017-05-21T08:03:18.157Z,71.89
2017-05-21T08:03:58.687Z,71.8
2017-05-21T08:04:39.237Z,71.61
2017-05-21T08:05:19.757Z,71.8
2017-05-21T08:06:00.290Z,71.93
2017-05-21T08:06:40.796Z,71.45
2017-05-21T08:07:21.316Z,71.26
2017-05-21T08:08:01.829Z,71.36
2017-05-21T08:08:42.363Z,70.97
2017-05-21T08:09:22.916Z,70.97
2017-05-21T08:10:03.463Z,71.16
2017-05-21T08:10:43.989Z,70.78
2017-05-21T08:11:25.562Z,70.68
2017-05-21T08:12:06.107Z,70.78
2017-05-21T08:12:46.658Z,70.3
2017-05-21T08:13:27.204Z,70.5
2017-05-21T08:14:07.723Z,70.5
2017-05-21T08:14:49.275Z,70.4
2017-05-21T08:15:29.814Z,70.21
2017-05-21T08:16:10.356Z,70.21
2017-05-21T08:16:50.885Z,70.21
2017-05-21T08:17:31.434Z,70.01
2017-05-21T08:18:11.962Z,69.92
2017-05-21T08:18:52.500Z,70.11
2017-05-21T08:19:33.043Z,69.82
2017-05-21T08:20:13.577Z,70.01
2017-05-21T08:20:54.110Z,69.82
2017-05-21T08:21:34.637Z,69.54
2017-05-21T08:22:15.182Z,69.35
2017-05-21T08:22:55.719Z,69.57
2017-05-21T08:23:36.262Z,69
2017-05-21T08:24:16.787Z,69
2017-05-21T08:24:57.326Z,68.71
2017-05-21T08:25:37.839Z,68.8
2017-05-21T08:26:18.366Z,68.71
2017-05-21T08:26:58.882Z,68.71
2017-05-21T08:27:39.411Z,68.33
2017-05-21T08:28:19.940Z,68.52
2017-05-21T08:29:01.475Z,68.33
2017-05-21T08:29:41.998Z,68.42
2017-05-21T08:30:22.527Z,68.42
2017-05-21T08:31:03.060Z,68.04
2017-05-21T08:31:43.609Z,68.62
2017-05-21T08:32:24.142Z,68.36
2017-05-21T08:33:04.709Z,68.36
2017-05-21T08:33:45.235Z,68.52
2017-05-21T08:34:25.744Z,68.36
2017-05-21T08:35:06.287Z,68.46
2017-05-21T08:35:46.812Z,67.69
2017-05-21T08:36:28.427Z,67.98
2017-05-21T08:37:08.977Z,67.98
2017-05-21T08:37:49.467Z,67.79
2017-05-21T08:38:29.989Z,67.79
2017-05-21T08:39:10.545Z,67.69
2017-05-21T08:39:51.074Z,67.79
2017-05-21T08:40:31.588Z,67.69
2017-05-21T08:41:12.122Z,67.79
2017-05-21T08:41:52.660Z,67.79
2017-05-21T08:42:33.193Z,67.6
2017-05-21T08:43:13.711Z,67.31
2017-05-21T08:43:54.276Z,67.31
2017-05-21T08:44:34.789Z,67.11
2017-05-21T08:45:15.386Z,67.21
2017-05-21T08:45:55.885Z,67.02
2017-05-21T08:46:36.417Z,67.11